sensor_id;sensor_type;location;lat;lon;timestamp;P1;durP1;ratioP1;P2;durP2;ratioP2
10410;SDS011;5251;52.112;8.606;2023-04-25T00:01:39;10.07;;;4.40;;
10410;SDS011;5251;52.112;8.606;2023-04-25T00:04:05;10.00;;;4.35;;
10410;SDS011;5251;52.112;8.606;2023-04-25T00:06:31;9.32;;;4.35;;
10410;SDS011;5251;52.112;8.606;2023-04-25T00:08:57;8.05;;;3.70;;
10410;SDS011;5251;52.112;8.606;2023-04-25T00:11:23;7.85;;;4.28;;
10410;SDS011;5251;52.112;8.606;2023-04-25T00:13:49;11.05;;;4.60;;
10410;SDS011;5251;52.112;8.606;2023-04-25T00:16:19;8.38;;;4.60;;
10410;SDS011;5251;52.112;8.606;2023-04-25T00:18:44;8.95;;;4.93;;
10410;SDS011;5251;52.112;8.606;2023-04-25T00:21:16;7.22;;;4.35;;
10410;SDS011;5251;52.112;8.606;2023-04-25T00:23:45;11.82;;;4.70;;
10410;SDS011;5251;52.112;8.606;2023-04-25T00:26:12;9.68;;;4.35;;
10410;SDS011;5251;52.112;8.606;2023-04-25T00:28:38;7.88;;;4.75;;
10410;SDS011;5251;52.112;8.606;2023-04-25T00:31:04;8.70;;;4.65;;
10410;SDS011;5251;52.112;8.606;2023-04-25T00:33:30;9.27;;;5.00;;
10410;SDS011;5251;52.112;8.606;2023-04-25T00:35:56;10.60;;;5.10;;
10410;SDS011;5251;52.112;8.606;2023-04-25T00:38:21;8.77;;;4.70;;
10410;SDS011;5251;52.112;8.606;2023-04-25T00:40:47;9.93;;;4.68;;
10410;SDS011;5251;52.112;8.606;2023-04-25T00:43:13;8.07;;;4.55;;
10410;SDS011;5251;52.112;8.606;2023-04-25T00:45:38;11.65;;;5.63;;
10410;SDS011;5251;52.112;8.606;2023-04-25T00:48:04;10.68;;;5.03;;
10410;SDS011;5251;52.112;8.606;2023-04-25T00:50:32;13.60;;;4.97;;
10410;SDS011;5251;52.112;8.606;2023-04-25T00:52:58;9.25;;;4.95;;
10410;SDS011;5251;52.112;8.606;2023-04-25T00:55:25;9.55;;;5.00;;
10410;SDS011;5251;52.112;8.606;2023-04-25T00:57:52;11.18;;;5.20;;
10410;SDS011;5251;52.112;8.606;2023-04-25T01:00:18;9.23;;;4.85;;
10410;SDS011;5251;52.112;8.606;2023-04-25T01:02:44;10.63;;;4.90;;
10410;SDS011;5251;52.112;8.606;2023-04-25T01:05:11;10.35;;;5.32;;
10410;SDS011;5251;52.112;8.606;2023-04-25T01:07:37;9.02;;;4.88;;
10410;SDS011;5251;52.112;8.606;2023-04-25T01:10:03;9.98;;;5.18;;
10410;SDS011;5251;52.112;8.606;2023-04-25T01:12:31;10.38;;;4.97;;
10410;SDS011;5251;52.112;8.606;2023-04-25T01:14:56;11.23;;;5.32;;
10410;SDS011;5251;52.112;8.606;2023-04-25T01:17:22;9.23;;;5.18;;
10410;SDS011;5251;52.112;8.606;2023-04-25T01:19:49;11.05;;;5.40;;
10410;SDS011;5251;52.112;8.606;2023-04-25T01:22:16;8.75;;;4.63;;
10410;SDS011;5251;52.112;8.606;2023-04-25T01:24:42;8.80;;;4.65;;
10410;SDS011;5251;52.112;8.606;2023-04-25T01:27:08;7.55;;;5.00;;
10410;SDS011;5251;52.112;8.606;2023-04-25T01:29:34;7.10;;;4.80;;
10410;SDS011;5251;52.112;8.606;2023-04-25T01:32:00;9.63;;;4.70;;
10410;SDS011;5251;52.112;8.606;2023-04-25T01:34:26;9.73;;;4.68;;
10410;SDS011;5251;52.112;8.606;2023-04-25T01:36:52;6.72;;;4.30;;
10410;SDS011;5251;52.112;8.606;2023-04-25T01:39:18;6.15;;;4.80;;
10410;SDS011;5251;52.112;8.606;2023-04-25T01:41:48;9.85;;;4.95;;
10410;SDS011;5251;52.112;8.606;2023-04-25T01:44:14;8.43;;;4.63;;
10410;SDS011;5251;52.112;8.606;2023-04-25T01:46:40;7.70;;;4.30;;
10410;SDS011;5251;52.112;8.606;2023-04-25T01:49:05;8.60;;;4.57;;
10410;SDS011;5251;52.112;8.606;2023-04-25T01:51:31;9.43;;;4.47;;
10410;SDS011;5251;52.112;8.606;2023-04-25T01:53:57;5.82;;;4.25;;
10410;SDS011;5251;52.112;8.606;2023-04-25T01:56:23;5.97;;;3.55;;
10410;SDS011;5251;52.112;8.606;2023-04-25T01:58:49;6.13;;;4.10;;
10410;SDS011;5251;52.112;8.606;2023-04-25T02:01:14;4.47;;;3.03;;
10410;SDS011;5251;52.112;8.606;2023-04-25T02:03:40;4.30;;;3.08;;
10410;SDS011;5251;52.112;8.606;2023-04-25T02:06:06;4.80;;;3.08;;
10410;SDS011;5251;52.112;8.606;2023-04-25T02:08:31;4.63;;;2.90;;
10410;SDS011;5251;52.112;8.606;2023-04-25T02:10:57;4.57;;;2.95;;
10410;SDS011;5251;52.112;8.606;2023-04-25T02:13:23;5.25;;;3.15;;
10410;SDS011;5251;52.112;8.606;2023-04-25T02:15:48;3.97;;;2.88;;
10410;SDS011;5251;52.112;8.606;2023-04-25T02:18:14;4.63;;;3.00;;
10410;SDS011;5251;52.112;8.606;2023-04-25T02:20:41;7.07;;;3.45;;
10410;SDS011;5251;52.112;8.606;2023-04-25T02:23:07;7.95;;;3.35;;
10410;SDS011;5251;52.112;8.606;2023-04-25T02:25:33;4.90;;;3.33;;
10410;SDS011;5251;52.112;8.606;2023-04-25T02:27:58;7.25;;;3.15;;
10410;SDS011;5251;52.112;8.606;2023-04-25T02:30:24;5.00;;;2.95;;
10410;SDS011;5251;52.112;8.606;2023-04-25T02:32:49;5.70;;;3.33;;
10410;SDS011;5251;52.112;8.606;2023-04-25T02:35:15;5.65;;;3.03;;
10410;SDS011;5251;52.112;8.606;2023-04-25T02:37:41;4.78;;;3.08;;
10410;SDS011;5251;52.112;8.606;2023-04-25T02:40:07;6.10;;;3.30;;
10410;SDS011;5251;52.112;8.606;2023-04-25T02:42:33;7.13;;;3.65;;
10410;SDS011;5251;52.112;8.606;2023-04-25T02:44:59;5.45;;;3.22;;
10410;SDS011;5251;52.112;8.606;2023-04-25T02:47:25;4.88;;;2.45;;
10410;SDS011;5251;52.112;8.606;2023-04-25T02:49:51;6.07;;;3.13;;
10410;SDS011;5251;52.112;8.606;2023-04-25T02:52:16;6.45;;;3.42;;
10410;SDS011;5251;52.112;8.606;2023-04-25T02:54:42;7.28;;;3.33;;
10410;SDS011;5251;52.112;8.606;2023-04-25T02:57:07;6.53;;;3.08;;
10410;SDS011;5251;52.112;8.606;2023-04-25T02:59:33;10.88;;;3.70;;
10410;SDS011;5251;52.112;8.606;2023-04-25T03:01:59;8.32;;;3.30;;
10410;SDS011;5251;52.112;8.606;2023-04-25T03:04:26;13.52;;;3.38;;
10410;SDS011;5251;52.112;8.606;2023-04-25T03:06:51;8.35;;;3.47;;
10410;SDS011;5251;52.112;8.606;2023-04-25T03:09:18;9.75;;;3.88;;
10410;SDS011;5251;52.112;8.606;2023-04-25T03:11:44;8.48;;;3.40;;
10410;SDS011;5251;52.112;8.606;2023-04-25T03:14:10;10.15;;;3.78;;
10410;SDS011;5251;52.112;8.606;2023-04-25T03:16:36;10.45;;;3.50;;
10410;SDS011;5251;52.112;8.606;2023-04-25T03:19:02;8.38;;;3.38;;
10410;SDS011;5251;52.112;8.606;2023-04-25T03:21:28;10.85;;;3.65;;
10410;SDS011;5251;52.112;8.606;2023-04-25T03:23:56;12.63;;;3.95;;
10410;SDS011;5251;52.112;8.606;2023-04-25T03:26:23;13.30;;;3.78;;
10410;SDS011;5251;52.112;8.606;2023-04-25T03:28:48;12.43;;;3.60;;
10410;SDS011;5251;52.112;8.606;2023-04-25T03:31:14;9.55;;;3.30;;
10410;SDS011;5251;52.112;8.606;2023-04-25T03:33:39;12.18;;;3.67;;
10410;SDS011;5251;52.112;8.606;2023-04-25T03:36:05;10.15;;;3.20;;
10410;SDS011;5251;52.112;8.606;2023-04-25T03:38:31;13.00;;;3.78;;
10410;SDS011;5251;52.112;8.606;2023-04-25T03:40:56;10.27;;;3.70;;
10410;SDS011;5251;52.112;8.606;2023-04-25T03:43:22;10.07;;;3.42;;
10410;SDS011;5251;52.112;8.606;2023-04-25T03:45:48;9.88;;;3.40;;
10410;SDS011;5251;52.112;8.606;2023-04-25T03:48:13;13.60;;;4.03;;
10410;SDS011;5251;52.112;8.606;2023-04-25T03:50:39;10.48;;;3.72;;
10410;SDS011;5251;52.112;8.606;2023-04-25T03:53:05;8.20;;;3.20;;
10410;SDS011;5251;52.112;8.606;2023-04-25T03:55:30;11.77;;;3.75;;
10410;SDS011;5251;52.112;8.606;2023-04-25T03:57:57;12.63;;;3.58;;
10410;SDS011;5251;52.112;8.606;2023-04-25T04:00:23;14.43;;;3.70;;
10410;SDS011;5251;52.112;8.606;2023-04-25T04:02:49;10.30;;;3.50;;
10410;SDS011;5251;52.112;8.606;2023-04-25T04:05:14;11.73;;;3.97;;
10410;SDS011;5251;52.112;8.606;2023-04-25T04:07:40;11.27;;;3.88;;
10410;SDS011;5251;52.112;8.606;2023-04-25T04:10:07;10.57;;;4.05;;
10410;SDS011;5251;52.112;8.606;2023-04-25T04:12:37;10.63;;;3.60;;
10410;SDS011;5251;52.112;8.606;2023-04-25T04:15:06;13.40;;;3.80;;
10410;SDS011;5251;52.112;8.606;2023-04-25T04:17:32;11.15;;;3.38;;
10410;SDS011;5251;52.112;8.606;2023-04-25T04:19:58;15.02;;;4.25;;
10410;SDS011;5251;52.112;8.606;2023-04-25T04:22:24;9.68;;;3.38;;
10410;SDS011;5251;52.112;8.606;2023-04-25T04:24:50;11.35;;;3.72;;
10410;SDS011;5251;52.112;8.606;2023-04-25T04:27:19;12.52;;;3.30;;
10410;SDS011;5251;52.112;8.606;2023-04-25T04:29:45;8.60;;;3.63;;
10410;SDS011;5251;52.112;8.606;2023-04-25T04:32:12;10.75;;;3.60;;
10410;SDS011;5251;52.112;8.606;2023-04-25T04:34:38;11.75;;;4.07;;
10410;SDS011;5251;52.112;8.606;2023-04-25T04:37:04;10.27;;;3.75;;
10410;SDS011;5251;52.112;8.606;2023-04-25T04:39:31;7.30;;;3.25;;
10410;SDS011;5251;52.112;8.606;2023-04-25T04:41:57;12.43;;;3.78;;
10410;SDS011;5251;52.112;8.606;2023-04-25T04:44:24;12.35;;;3.38;;
10410;SDS011;5251;52.112;8.606;2023-04-25T04:46:50;12.13;;;3.92;;
10410;SDS011;5251;52.112;8.606;2023-04-25T04:49:16;7.32;;;3.08;;
10410;SDS011;5251;52.112;8.606;2023-04-25T04:51:42;11.65;;;3.80;;
10410;SDS011;5251;52.112;8.606;2023-04-25T04:54:10;13.57;;;3.65;;
10410;SDS011;5251;52.112;8.606;2023-04-25T04:56:36;13.10;;;3.53;;
10410;SDS011;5251;52.112;8.606;2023-04-25T04:59:01;12.63;;;3.72;;
10410;SDS011;5251;52.112;8.606;2023-04-25T05:01:27;8.77;;;3.50;;
10410;SDS011;5251;52.112;8.606;2023-04-25T05:03:54;9.32;;;3.53;;
10410;SDS011;5251;52.112;8.606;2023-04-25T05:06:25;10.10;;;3.13;;
10410;SDS011;5251;52.112;8.606;2023-04-25T05:08:51;10.93;;;3.25;;
10410;SDS011;5251;52.112;8.606;2023-04-25T05:11:17;10.77;;;3.78;;
10410;SDS011;5251;52.112;8.606;2023-04-25T05:13:43;11.88;;;3.95;;
10410;SDS011;5251;52.112;8.606;2023-04-25T05:16:10;8.90;;;3.55;;
10410;SDS011;5251;52.112;8.606;2023-04-25T05:18:36;9.70;;;3.88;;
10410;SDS011;5251;52.112;8.606;2023-04-25T05:21:02;9.65;;;3.70;;
10410;SDS011;5251;52.112;8.606;2023-04-25T05:23:27;9.93;;;3.95;;
10410;SDS011;5251;52.112;8.606;2023-04-25T05:25:54;10.38;;;3.42;;
10410;SDS011;5251;52.112;8.606;2023-04-25T05:28:20;13.40;;;3.75;;
10410;SDS011;5251;52.112;8.606;2023-04-25T05:30:46;12.65;;;4.32;;
10410;SDS011;5251;52.112;8.606;2023-04-25T05:33:11;9.45;;;4.05;;
10410;SDS011;5251;52.112;8.606;2023-04-25T05:35:37;10.68;;;3.80;;
10410;SDS011;5251;52.112;8.606;2023-04-25T05:38:03;12.57;;;4.18;;
10410;SDS011;5251;52.112;8.606;2023-04-25T05:40:28;9.95;;;3.58;;
10410;SDS011;5251;52.112;8.606;2023-04-25T05:42:54;12.57;;;3.58;;
10410;SDS011;5251;52.112;8.606;2023-04-25T05:45:19;11.60;;;4.13;;
10410;SDS011;5251;52.112;8.606;2023-04-25T05:47:45;9.15;;;3.65;;
10410;SDS011;5251;52.112;8.606;2023-04-25T05:50:11;12.25;;;3.85;;
10410;SDS011;5251;52.112;8.606;2023-04-25T05:52:36;14.50;;;4.00;;
10410;SDS011;5251;52.112;8.606;2023-04-25T05:55:02;8.95;;;3.47;;
10410;SDS011;5251;52.112;8.606;2023-04-25T05:57:27;9.90;;;3.55;;
10410;SDS011;5251;52.112;8.606;2023-04-25T05:59:53;8.27;;;3.53;;
10410;SDS011;5251;52.112;8.606;2023-04-25T06:02:21;12.10;;;3.58;;
10410;SDS011;5251;52.112;8.606;2023-04-25T06:04:50;11.10;;;3.58;;
10410;SDS011;5251;52.112;8.606;2023-04-25T06:07:16;11.13;;;3.55;;
10410;SDS011;5251;52.112;8.606;2023-04-25T06:09:43;7.43;;;3.35;;
10410;SDS011;5251;52.112;8.606;2023-04-25T06:12:09;9.20;;;3.35;;
10410;SDS011;5251;52.112;8.606;2023-04-25T06:14:34;12.82;;;3.85;;
10410;SDS011;5251;52.112;8.606;2023-04-25T06:17:00;9.20;;;3.47;;
10410;SDS011;5251;52.112;8.606;2023-04-25T06:19:31;10.30;;;3.45;;
10410;SDS011;5251;52.112;8.606;2023-04-25T06:21:57;12.13;;;3.95;;
10410;SDS011;5251;52.112;8.606;2023-04-25T06:24:23;9.00;;;3.80;;
10410;SDS011;5251;52.112;8.606;2023-04-25T06:26:48;10.57;;;3.13;;
10410;SDS011;5251;52.112;8.606;2023-04-25T06:29:14;9.50;;;3.20;;
10410;SDS011;5251;52.112;8.606;2023-04-25T06:31:40;6.82;;;2.85;;
10410;SDS011;5251;52.112;8.606;2023-04-25T06:34:05;10.25;;;3.33;;
10410;SDS011;5251;52.112;8.606;2023-04-25T06:36:31;7.68;;;2.88;;
10410;SDS011;5251;52.112;8.606;2023-04-25T06:38:56;8.60;;;3.17;;
10410;SDS011;5251;52.112;8.606;2023-04-25T06:41:22;11.90;;;3.17;;
10410;SDS011;5251;52.112;8.606;2023-04-25T06:43:48;14.23;;;3.03;;
10410;SDS011;5251;52.112;8.606;2023-04-25T06:46:13;10.85;;;3.50;;
10410;SDS011;5251;52.112;8.606;2023-04-25T06:48:39;8.20;;;3.08;;
10410;SDS011;5251;52.112;8.606;2023-04-25T06:51:04;9.32;;;3.08;;
10410;SDS011;5251;52.112;8.606;2023-04-25T06:53:30;7.00;;;2.90;;
10410;SDS011;5251;52.112;8.606;2023-04-25T06:55:55;7.60;;;2.83;;
10410;SDS011;5251;52.112;8.606;2023-04-25T06:58:21;10.25;;;3.20;;
10410;SDS011;5251;52.112;8.606;2023-04-25T07:00:47;11.13;;;3.38;;
10410;SDS011;5251;52.112;8.606;2023-04-25T07:03:13;10.57;;;2.80;;
10410;SDS011;5251;52.112;8.606;2023-04-25T07:05:38;8.85;;;3.25;;
10410;SDS011;5251;52.112;8.606;2023-04-25T07:08:04;9.23;;;3.03;;
10410;SDS011;5251;52.112;8.606;2023-04-25T07:10:30;7.32;;;3.15;;
10410;SDS011;5251;52.112;8.606;2023-04-25T07:12:55;9.50;;;2.60;;
10410;SDS011;5251;52.112;8.606;2023-04-25T07:15:21;8.55;;;2.63;;
10410;SDS011;5251;52.112;8.606;2023-04-25T07:17:46;11.23;;;2.92;;
10410;SDS011;5251;52.112;8.606;2023-04-25T07:20:12;9.55;;;2.95;;
10410;SDS011;5251;52.112;8.606;2023-04-25T07:22:38;7.50;;;3.00;;
10410;SDS011;5251;52.112;8.606;2023-04-25T07:25:03;10.43;;;2.75;;
10410;SDS011;5251;52.112;8.606;2023-04-25T07:27:30;8.10;;;2.58;;
10410;SDS011;5251;52.112;8.606;2023-04-25T07:29:56;10.55;;;2.70;;
10410;SDS011;5251;52.112;8.606;2023-04-25T07:32:22;7.90;;;3.00;;
10410;SDS011;5251;52.112;8.606;2023-04-25T07:34:48;8.40;;;2.92;;
10410;SDS011;5251;52.112;8.606;2023-04-25T07:37:13;8.23;;;2.38;;
10410;SDS011;5251;52.112;8.606;2023-04-25T07:39:39;10.68;;;2.90;;
10410;SDS011;5251;52.112;8.606;2023-04-25T07:42:05;9.15;;;2.90;;
10410;SDS011;5251;52.112;8.606;2023-04-25T07:44:33;9.57;;;2.83;;
10410;SDS011;5251;52.112;8.606;2023-04-25T07:47:03;9.00;;;2.88;;
10410;SDS011;5251;52.112;8.606;2023-04-25T07:49:36;8.57;;;2.50;;
10410;SDS011;5251;52.112;8.606;2023-04-25T07:52:02;9.68;;;2.75;;
10410;SDS011;5251;52.112;8.606;2023-04-25T07:54:30;6.18;;;2.30;;
10410;SDS011;5251;52.112;8.606;2023-04-25T07:56:56;7.28;;;2.45;;
10410;SDS011;5251;52.112;8.606;2023-04-25T07:59:21;3.28;;;2.20;;
10410;SDS011;5251;52.112;8.606;2023-04-25T08:01:47;7.45;;;2.55;;
10410;SDS011;5251;52.112;8.606;2023-04-25T08:04:13;7.10;;;2.25;;
10410;SDS011;5251;52.112;8.606;2023-04-25T08:06:38;6.15;;;2.40;;
10410;SDS011;5251;52.112;8.606;2023-04-25T08:09:05;7.45;;;2.70;;
10410;SDS011;5251;52.112;8.606;2023-04-25T08:11:31;6.35;;;2.20;;
10410;SDS011;5251;52.112;8.606;2023-04-25T08:13:56;9.90;;;2.35;;
10410;SDS011;5251;52.112;8.606;2023-04-25T08:16:22;5.80;;;2.10;;
10410;SDS011;5251;52.112;8.606;2023-04-25T08:18:47;7.60;;;2.20;;
10410;SDS011;5251;52.112;8.606;2023-04-25T08:21:15;5.70;;;2.30;;
10410;SDS011;5251;52.112;8.606;2023-04-25T08:23:40;8.00;;;2.35;;
10410;SDS011;5251;52.112;8.606;2023-04-25T08:26:06;7.68;;;2.00;;
10410;SDS011;5251;52.112;8.606;2023-04-25T08:28:32;7.63;;;2.55;;
10410;SDS011;5251;52.112;8.606;2023-04-25T08:30:57;4.43;;;2.00;;
10410;SDS011;5251;52.112;8.606;2023-04-25T08:33:23;6.85;;;2.47;;
10410;SDS011;5251;52.112;8.606;2023-04-25T08:35:49;5.53;;;1.92;;
10410;SDS011;5251;52.112;8.606;2023-04-25T08:38:14;4.25;;;1.90;;
10410;SDS011;5251;52.112;8.606;2023-04-25T08:40:40;4.72;;;2.08;;
10410;SDS011;5251;52.112;8.606;2023-04-25T08:43:09;6.15;;;2.28;;
10410;SDS011;5251;52.112;8.606;2023-04-25T08:45:41;5.13;;;1.83;;
10410;SDS011;5251;52.112;8.606;2023-04-25T08:48:14;4.85;;;1.90;;
10410;SDS011;5251;52.112;8.606;2023-04-25T08:50:43;5.88;;;2.00;;
10410;SDS011;5251;52.112;8.606;2023-04-25T08:53:25;6.95;;;1.80;;
10410;SDS011;5251;52.112;8.606;2023-04-25T08:55:56;3.83;;;1.88;;
10410;SDS011;5251;52.112;8.606;2023-04-25T08:58:22;8.68;;;2.00;;
10410;SDS011;5251;52.112;8.606;2023-04-25T09:00:49;5.95;;;2.00;;
10410;SDS011;5251;52.112;8.606;2023-04-25T09:03:16;5.60;;;1.77;;
10410;SDS011;5251;52.112;8.606;2023-04-25T09:05:43;5.30;;;1.92;;
10410;SDS011;5251;52.112;8.606;2023-04-25T09:08:08;8.77;;;2.00;;
10410;SDS011;5251;52.112;8.606;2023-04-25T09:10:34;3.42;;;1.83;;
10410;SDS011;5251;52.112;8.606;2023-04-25T09:13:04;7.13;;;2.50;;
10410;SDS011;5251;52.112;8.606;2023-04-25T09:18:29;4.70;;;1.83;;
10410;SDS011;5251;52.112;8.606;2023-04-25T09:21:17;5.35;;;2.20;;
10410;SDS011;5251;52.112;8.606;2023-04-25T09:23:44;3.67;;;2.05;;
10410;SDS011;5251;52.112;8.606;2023-04-25T09:26:13;6.50;;;1.98;;
10410;SDS011;5251;52.112;8.606;2023-04-25T09:28:41;4.00;;;2.13;;
10410;SDS011;5251;52.112;8.606;2023-04-25T09:31:09;5.47;;;2.03;;
10410;SDS011;5251;52.112;8.606;2023-04-25T09:33:35;5.05;;;1.85;;
10410;SDS011;5251;52.112;8.606;2023-04-25T09:36:05;3.25;;;1.55;;
10410;SDS011;5251;52.112;8.606;2023-04-25T09:38:39;4.85;;;1.52;;
10410;SDS011;5251;52.112;8.606;2023-04-25T09:41:06;4.05;;;1.80;;
10410;SDS011;5251;52.112;8.606;2023-04-25T09:43:33;4.85;;;1.75;;
10410;SDS011;5251;52.112;8.606;2023-04-25T09:45:58;3.75;;;1.60;;
10410;SDS011;5251;52.112;8.606;2023-04-25T09:48:26;3.13;;;1.70;;
10410;SDS011;5251;52.112;8.606;2023-04-25T09:53:35;3.72;;;1.70;;
10410;SDS011;5251;52.112;8.606;2023-04-25T09:56:03;4.93;;;1.55;;
10410;SDS011;5251;52.112;8.606;2023-04-25T09:58:33;4.32;;;1.55;;
10410;SDS011;5251;52.112;8.606;2023-04-25T10:01:01;4.38;;;1.50;;
10410;SDS011;5251;52.112;8.606;2023-04-25T10:03:32;4.35;;;2.08;;
10410;SDS011;5251;52.112;8.606;2023-04-25T10:05:59;6.32;;;1.67;;
10410;SDS011;5251;52.112;8.606;2023-04-25T10:08:31;3.55;;;1.40;;
10410;SDS011;5251;52.112;8.606;2023-04-25T10:10:59;5.53;;;1.83;;
10410;SDS011;5251;52.112;8.606;2023-04-25T10:13:27;4.85;;;1.80;;
10410;SDS011;5251;52.112;8.606;2023-04-25T10:15:54;3.63;;;1.27;;
10410;SDS011;5251;52.112;8.606;2023-04-25T10:18:22;2.75;;;1.42;;
10410;SDS011;5251;52.112;8.606;2023-04-25T10:20:49;3.42;;;1.33;;
10410;SDS011;5251;52.112;8.606;2023-04-25T10:23:15;4.00;;;1.45;;
10410;SDS011;5251;52.112;8.606;2023-04-25T10:25:42;3.63;;;1.42;;
10410;SDS011;5251;52.112;8.606;2023-04-25T10:28:08;5.28;;;1.35;;
10410;SDS011;5251;52.112;8.606;2023-04-25T10:30:34;5.35;;;1.50;;
10410;SDS011;5251;52.112;8.606;2023-04-25T10:33:00;3.13;;;1.58;;
10410;SDS011;5251;52.112;8.606;2023-04-25T10:35:26;3.20;;;1.40;;
10410;SDS011;5251;52.112;8.606;2023-04-25T10:38:05;4.70;;;1.80;;
10410;SDS011;5251;52.112;8.606;2023-04-25T10:40:34;3.28;;;1.50;;
10410;SDS011;5251;52.112;8.606;2023-04-25T10:46:13;4.10;;;1.40;;
10410;SDS011;5251;52.112;8.606;2023-04-25T10:48:43;4.53;;;1.63;;
10410;SDS011;5251;52.112;8.606;2023-04-25T10:51:26;5.45;;;1.70;;
10410;SDS011;5251;52.112;8.606;2023-04-25T10:54:05;3.88;;;1.50;;
10410;SDS011;5251;52.112;8.606;2023-04-25T10:56:33;6.40;;;1.48;;
10410;SDS011;5251;52.112;8.606;2023-04-25T10:59:14;4.07;;;1.70;;
10410;SDS011;5251;52.112;8.606;2023-04-25T11:01:44;2.50;;;1.40;;
10410;SDS011;5251;52.112;8.606;2023-04-25T11:09:33;5.10;;;1.73;;
10410;SDS011;5251;52.112;8.606;2023-04-25T11:12:00;4.18;;;1.52;;
10410;SDS011;5251;52.112;8.606;2023-04-25T11:14:26;2.35;;;1.17;;
10410;SDS011;5251;52.112;8.606;2023-04-25T11:17:01;3.75;;;1.48;;
10410;SDS011;5251;52.112;8.606;2023-04-25T11:19:30;4.95;;;1.50;;
10410;SDS011;5251;52.112;8.606;2023-04-25T11:21:57;2.53;;;1.27;;
10410;SDS011;5251;52.112;8.606;2023-04-25T11:24:30;4.30;;;1.50;;
10410;SDS011;5251;52.112;8.606;2023-04-25T11:26:59;5.32;;;1.27;;
10410;SDS011;5251;52.112;8.606;2023-04-25T11:29:27;3.85;;;1.40;;
10410;SDS011;5251;52.112;8.606;2023-04-25T11:31:54;3.63;;;1.30;;
10410;SDS011;5251;52.112;8.606;2023-04-25T11:34:23;3.85;;;1.55;;
10410;SDS011;5251;52.112;8.606;2023-04-25T11:36:50;3.88;;;1.42;;
10410;SDS011;5251;52.112;8.606;2023-04-25T11:39:17;4.63;;;1.50;;
10410;SDS011;5251;52.112;8.606;2023-04-25T11:41:43;3.13;;;1.27;;
10410;SDS011;5251;52.112;8.606;2023-04-25T11:44:09;3.60;;;1.52;;
10410;SDS011;5251;52.112;8.606;2023-04-25T11:46:35;2.70;;;1.30;;
10410;SDS011;5251;52.112;8.606;2023-04-25T11:49:02;3.33;;;1.42;;
10410;SDS011;5251;52.112;8.606;2023-04-25T11:51:28;4.55;;;1.30;;
10410;SDS011;5251;52.112;8.606;2023-04-25T11:53:55;5.50;;;1.40;;
10410;SDS011;5251;52.112;8.606;2023-04-25T11:56:20;3.22;;;1.35;;
10410;SDS011;5251;52.112;8.606;2023-04-25T11:58:57;3.92;;;1.45;;
10410;SDS011;5251;52.112;8.606;2023-04-25T12:01:27;3.30;;;1.60;;
10410;SDS011;5251;52.112;8.606;2023-04-25T12:03:57;5.18;;;1.50;;
10410;SDS011;5251;52.112;8.606;2023-04-25T12:06:30;3.80;;;1.65;;
10410;SDS011;5251;52.112;8.606;2023-04-25T12:09:04;3.35;;;1.30;;
10410;SDS011;5251;52.112;8.606;2023-04-25T12:11:47;3.97;;;1.25;;
10410;SDS011;5251;52.112;8.606;2023-04-25T12:14:20;3.08;;;1.50;;
10410;SDS011;5251;52.112;8.606;2023-04-25T12:16:52;3.10;;;1.40;;
10410;SDS011;5251;52.112;8.606;2023-04-25T12:19:21;2.45;;;1.25;;
10410;SDS011;5251;52.112;8.606;2023-04-25T12:21:47;5.65;;;1.70;;
10410;SDS011;5251;52.112;8.606;2023-04-25T12:24:14;2.88;;;1.50;;
10410;SDS011;5251;52.112;8.606;2023-04-25T12:29:24;4.15;;;1.50;;
10410;SDS011;5251;52.112;8.606;2023-04-25T12:31:51;4.57;;;1.50;;
10410;SDS011;5251;52.112;8.606;2023-04-25T12:34:18;3.90;;;1.38;;
10410;SDS011;5251;52.112;8.606;2023-04-25T12:36:44;3.08;;;1.55;;
10410;SDS011;5251;52.112;8.606;2023-04-25T12:39:17;2.72;;;1.33;;
10410;SDS011;5251;52.112;8.606;2023-04-25T12:41:44;4.88;;;1.60;;
10410;SDS011;5251;52.112;8.606;2023-04-25T12:44:11;3.25;;;1.50;;
10410;SDS011;5251;52.112;8.606;2023-04-25T12:46:37;2.03;;;1.30;;
10410;SDS011;5251;52.112;8.606;2023-04-25T12:49:03;4.50;;;1.52;;
10410;SDS011;5251;52.112;8.606;2023-04-25T12:51:31;2.53;;;1.30;;
10410;SDS011;5251;52.112;8.606;2023-04-25T12:53:58;2.65;;;1.27;;
10410;SDS011;5251;52.112;8.606;2023-04-25T12:56:24;3.65;;;1.50;;
10410;SDS011;5251;52.112;8.606;2023-04-25T12:58:51;3.10;;;1.88;;
10410;SDS011;5251;52.112;8.606;2023-04-25T13:01:17;3.13;;;1.60;;
10410;SDS011;5251;52.112;8.606;2023-04-25T13:03:42;5.20;;;1.50;;
10410;SDS011;5251;52.112;8.606;2023-04-25T13:06:08;4.25;;;1.48;;
10410;SDS011;5251;52.112;8.606;2023-04-25T13:08:34;2.80;;;1.38;;
10410;SDS011;5251;52.112;8.606;2023-04-25T13:11:01;3.10;;;1.55;;
10410;SDS011;5251;52.112;8.606;2023-04-25T13:13:28;3.53;;;1.40;;
10410;SDS011;5251;52.112;8.606;2023-04-25T13:15:53;3.63;;;1.30;;
10410;SDS011;5251;52.112;8.606;2023-04-25T13:18:19;5.40;;;1.73;;
10410;SDS011;5251;52.112;8.606;2023-04-25T13:20:45;3.17;;;1.67;;
10410;SDS011;5251;52.112;8.606;2023-04-25T13:23:11;2.78;;;1.10;;
10410;SDS011;5251;52.112;8.606;2023-04-25T13:25:36;3.22;;;1.30;;
10410;SDS011;5251;52.112;8.606;2023-04-25T13:28:02;3.45;;;1.08;;
10410;SDS011;5251;52.112;8.606;2023-04-25T13:30:28;2.92;;;1.30;;
10410;SDS011;5251;52.112;8.606;2023-04-25T13:32:54;1.95;;;1.00;;
10410;SDS011;5251;52.112;8.606;2023-04-25T13:35:21;1.75;;;0.85;;
10410;SDS011;5251;52.112;8.606;2023-04-25T13:37:47;2.17;;;1.02;;
10410;SDS011;5251;52.112;8.606;2023-04-25T13:40:13;2.40;;;0.93;;
10410;SDS011;5251;52.112;8.606;2023-04-25T13:42:39;2.70;;;1.00;;
10410;SDS011;5251;52.112;8.606;2023-04-25T13:45:05;2.83;;;1.20;;
10410;SDS011;5251;52.112;8.606;2023-04-25T13:47:31;3.72;;;0.90;;
10410;SDS011;5251;52.112;8.606;2023-04-25T13:49:57;1.70;;;1.10;;
10410;SDS011;5251;52.112;8.606;2023-04-25T13:52:23;1.52;;;0.93;;
10410;SDS011;5251;52.112;8.606;2023-04-25T13:54:52;2.65;;;1.15;;
10410;SDS011;5251;52.112;8.606;2023-04-25T13:57:17;2.25;;;1.05;;
10410;SDS011;5251;52.112;8.606;2023-04-25T13:59:43;2.97;;;1.25;;
10410;SDS011;5251;52.112;8.606;2023-04-25T14:02:09;3.10;;;1.30;;
10410;SDS011;5251;52.112;8.606;2023-04-25T14:04:35;1.98;;;1.00;;
10410;SDS011;5251;52.112;8.606;2023-04-25T14:07:00;3.38;;;1.30;;
10410;SDS011;5251;52.112;8.606;2023-04-25T14:09:27;1.92;;;1.15;;
10410;SDS011;5251;52.112;8.606;2023-04-25T14:11:53;3.13;;;1.20;;
10410;SDS011;5251;52.112;8.606;2023-04-25T14:14:18;2.90;;;1.25;;
10410;SDS011;5251;52.112;8.606;2023-04-25T14:16:45;4.07;;;1.42;;
10410;SDS011;5251;52.112;8.606;2023-04-25T14:19:13;2.58;;;1.00;;
10410;SDS011;5251;52.112;8.606;2023-04-25T14:21:41;2.40;;;1.13;;
10410;SDS011;5251;52.112;8.606;2023-04-25T14:24:10;2.38;;;1.10;;
10410;SDS011;5251;52.112;8.606;2023-04-25T14:26:36;1.70;;;1.30;;
10410;SDS011;5251;52.112;8.606;2023-04-25T14:29:02;2.72;;;1.40;;
10410;SDS011;5251;52.112;8.606;2023-04-25T14:31:29;2.50;;;1.00;;
10410;SDS011;5251;52.112;8.606;2023-04-25T14:33:55;1.50;;;0.90;;
10410;SDS011;5251;52.112;8.606;2023-04-25T14:36:20;2.30;;;1.25;;
10410;SDS011;5251;52.112;8.606;2023-04-25T14:38:46;2.28;;;1.10;;
10410;SDS011;5251;52.112;8.606;2023-04-25T14:41:12;1.85;;;1.20;;
10410;SDS011;5251;52.112;8.606;2023-04-25T14:43:37;1.50;;;0.93;;
10410;SDS011;5251;52.112;8.606;2023-04-25T14:46:05;1.80;;;1.00;;
10410;SDS011;5251;52.112;8.606;2023-04-25T14:48:31;2.28;;;1.00;;
10410;SDS011;5251;52.112;8.606;2023-04-25T14:50:57;3.40;;;1.10;;
10410;SDS011;5251;52.112;8.606;2023-04-25T14:53:24;1.67;;;0.95;;
10410;SDS011;5251;52.112;8.606;2023-04-25T14:55:50;3.30;;;1.20;;
10410;SDS011;5251;52.112;8.606;2023-04-25T14:58:16;1.80;;;1.10;;
10410;SDS011;5251;52.112;8.606;2023-04-25T15:00:41;3.42;;;1.30;;
10410;SDS011;5251;52.112;8.606;2023-04-25T15:03:08;1.80;;;1.00;;
10410;SDS011;5251;52.112;8.606;2023-04-25T15:05:34;4.35;;;1.33;;
10410;SDS011;5251;52.112;8.606;2023-04-25T15:08:02;2.15;;;1.05;;
10410;SDS011;5251;52.112;8.606;2023-04-25T15:10:28;3.10;;;1.10;;
10410;SDS011;5251;52.112;8.606;2023-04-25T15:12:53;2.90;;;1.20;;